Latest Weather Observations for McArthur River Mine

IDD60801

Issued at 7:35 pm CST Thursday 23 October 2014 (issued every 30 minutes, with the page automatically refreshed every 10 minutes)

About weather observations | Map of weather stations | Latest weather observations for NT | Other Formats
Station Details ID: 014704 Name: MCARTHUR RIVER MINE AIRPORT Lat: -16.44 Lon: 136.08 Height: 40.0 m
Data from the previous 72 hours. | See also: Recent months at McArthur River Mine
Date/Time
CST
Temp
°C
App
Temp
°C
Dew
Point
Rel
Hum
%
Delta-T
°C
Wind Press
QNH
hPa
Press
MSL
hPa
Rain
since 9 am
mm
Dir
 
Spd
km/h
Gust
km/h
Spd
kts
Gust
kts
23/07:30pm 29.2 29.7 20.1 58 6.0 NE 17 26 9 14 1013.0 - 0.0
23/07:00pm 29.8 29.7 19.5 54 6.7 NE 19 30 10 16 1012.6 - 0.0
23/06:30pm 30.5 29.9 18.9 50 7.5 NE 20 30 11 16 1012.3 - 0.0
23/06:00pm 31.7 30.8 18.3 45 8.7 NE 20 35 11 19 1011.8 1011.5 0.0
23/05:30pm 32.8 31.4 17.0 38 10.1 NE 20 30 11 16 1011.2 - 0.0
23/05:00pm 34.0 32.4 16.4 35 11.2 NE 20 32 11 17 1010.8 - 0.0
23/04:30pm 34.5 32.3 14.9 31 12.2 NE 20 33 11 18 1010.6 - 0.0
23/04:00pm 35.7 33.7 15.4 29 12.8 ENE 20 35 11 19 1010.5 - 0.0
23/03:30pm 35.5 32.3 14.2 28 13.2 NE 24 35 13 19 1010.6 - 0.0
23/03:00pm 36.4 34.1 10.6 21 15.2 NE 13 26 7 14 1010.8 1010.5 0.0
23/02:30pm 35.4 32.3 10.4 22 14.6 ENE 17 26 9 14 1011.0 - 0.0
23/02:00pm 36.5 32.5 8.4 18 16.0 ENE 19 30 10 16 1011.6 - 0.0
23/01:30pm 37.0 32.4 9.6 19 15.9 ESE 24 35 13 19 1012.2 - 0.0
23/01:00pm 36.4 35.1 11.3 22 14.9 NE 9 13 5 7 1012.5 - 0.0
23/12:30pm 36.0 32.9 12.2 23 14.3 NE 20 30 11 16 1013.0 - 0.0
23/12:00pm 35.2 31.5 12.8 26 13.5 ENE 24 41 13 22 1013.4 1013.1 0.0
23/11:30am 36.3 31.3 4.6 14 17.0 NE 20 30 11 16 1013.8 - 0.0
23/11:00am 35.6 32.4 8.4 19 15.4 E 15 30 8 16 1014.2 - 0.0
23/10:30am 33.5 33.2 14.5 31 11.7 ESE 9 22 5 12 1014.7 - 0.0
23/10:00am 33.0 34.1 18.0 41 9.7 E 9 15 5 8 1015.1 - 0.0
23/09:30am 30.3 33.1 20.5 55 6.5 NE 6 9 3 5 1015.4 - 0.0
23/09:00am 28.6 31.0 20.9 63 5.1 S 9 15 5 8 1015.6 1015.3 0.0
23/08:30am 27.4 31.3 23.0 77 3.0 SSW 7 11 4 6 1015.6 - 0.0
23/08:00am 26.2 30.4 24.1 88 1.4 SW 9 13 5 7 1015.4 - 0.0
23/07:30am 25.1 30.2 24.9 99 0.1 SW 7 9 4 5 1015.0 - 0.0
23/07:00am 23.9 28.4 23.9 100 0.0 SSW 7 9 4 5 1014.7 - 0.0
23/06:30am 22.5 - 22.7 - - CALM 0 6 0 3 1014.3 - 0.0
23/06:17am 22.2 - 22.4 - - S 7 9 4 5 1014.2 - 0.0
23/06:00am 21.9 - 22.1 - - WSW 2 7 1 4 1014.0 1013.7 0.0
23/05:51am 21.5 25.6 21.5 100 0.0 W 2 7 1 4 1013.9 - 0.0
23/05:30am 22.0 - 22.2 - - CALM 0 0 0 0 1013.5 - 0.0
23/05:00am 22.3 26.8 22.3 100 0.0 W 2 7 1 4 1013.3 - 0.0
23/04:30am 22.7 26.7 22.7 100 0.0 WSW 6 6 3 3 1013.2 - 0.0
23/04:22am 23.1 28.0 23.1 100 0.0 SSE 2 6 1 3 1013.2 - 0.0
23/04:04am 23.3 28.7 23.3 100 0.0 CALM 0 0 0 0 1013.2 - 0.0
23/04:00am 23.4 28.9 23.4 100 0.0 CALM 0 0 0 0 1013.2 - 0.0
23/03:48am 23.5 29.1 23.5 100 0.0 CALM 0 0 0 0 1013.2 - 0.0
23/03:33am 23.6 29.2 23.6 100 0.0 CALM 0 0 0 0 1013.3 - 0.0
23/03:30am 23.5 29.1 23.5 100 0.0 CALM 0 0 0 0 1013.3 - 0.0
23/03:00am 23.6 29.2 23.6 100 0.0 CALM 0 0 0 0 1013.3 1013.0 0.0
23/02:30am 24.3 29.6 24.3 100 0.0 E 4 7 2 4 1013.5 - 0.0
23/02:00am 24.4 29.3 24.4 100 0.0 NNE 6 7 3 4 1013.6 - 0.0
23/01:30am 24.9 30.2 24.4 97 0.3 N 4 7 2 4 1013.8 - 0.0
23/01:00am 25.3 30.2 24.4 95 0.6 NNE 6 9 3 5 1014.2 - 0.0
23/12:41am 25.6 30.0 24.4 93 0.8 NNE 9 15 5 8 1014.3 - 0.0
23/12:30am 25.6 29.5 24.2 92 1.0 NNE 11 17 6 9 1014.4 - 0.0
23/12:00am 25.8 29.6 24.0 90 1.2 NE 11 19 6 10 1014.8 1014.5 0.0
 
Date/Time
CST
Temp
°C
App
Temp
°C
Dew
Point
Rel
Hum
%
Delta-T
°C
Wind Press
QNH
hPa
Press
MSL
hPa
Rain
since 9 am
mm
Dir
 
Spd
km/h
Gust
km/h
Spd
kts
Gust
kts
22/11:36pm 26.1 29.7 24.3 90 1.2 NE 13 20 7 11 1015.0 - 0.0
22/11:30pm 26.2 29.7 24.2 89 1.4 NE 13 19 7 10 1015.1 - 0.0
22/11:18pm 26.3 29.8 24.2 88 1.4 NNE 13 17 7 9 1015.3 - 0.0
22/11:00pm 26.5 29.0 23.8 85 1.9 NE 17 20 9 11 1015.2 - 0.0
22/10:30pm 26.8 29.3 23.1 80 2.5 NE 15 24 8 13 1015.1 - 0.0
22/10:00pm 27.3 29.0 22.3 74 3.4 NE 17 24 9 13 1014.9 - 0.0
22/09:44pm 27.5 30.0 22.4 73 3.4 NE 13 19 7 10 1014.7 - 0.0
22/09:30pm 27.7 29.7 22.2 72 3.7 NNE 15 20 8 11 1014.5 - 0.0
22/09:00pm 28.2 29.9 21.7 68 4.4 NNE 15 24 8 13 1014.1 1013.8 0.0
22/08:30pm 28.8 28.9 20.0 59 5.8 NE 19 28 10 15 1013.8 - 0.0
22/08:00pm 29.5 28.0 17.7 49 7.5 NNE 22 32 12 17 1013.4 - 0.0
22/07:30pm 30.0 28.6 17.1 46 8.2 NNE 20 32 11 17 1013.1 - 0.0
22/07:00pm 30.6 29.5 17.7 46 8.2 NE 20 32 11 17 1012.8 - 0.0
22/06:30pm 31.5 30.3 17.4 43 9.0 NE 20 32 11 17 1012.5 - 0.0
22/06:00pm 33.1 31.2 15.1 33 11.2 NE 19 30 10 16 1011.8 1011.5 0.0
22/05:30pm 34.2 31.7 14.1 29 12.3 NE 20 30 11 16 1011.6 - 0.0
22/05:00pm 35.3 32.8 13.5 27 13.3 NE 19 30 10 16 1011.2 - 0.0
22/04:30pm 35.3 32.6 12.9 26 13.6 NNE 19 26 10 14 1011.2 - 0.0
22/04:00pm 35.2 33.2 12.8 26 13.5 NNE 15 24 8 13 1011.2 - 0.0
22/03:30pm 36.4 34.4 12.6 24 14.4 NNE 15 26 8 14 1011.4 - 0.0
22/03:00pm 37.1 35.3 13.2 24 14.6 NE 15 22 8 12 1011.6 1011.3 0.0
22/02:30pm 36.0 33.7 12.9 25 14.0 NE 17 32 9 17 1011.9 - 0.0
22/02:00pm 35.4 32.3 13.5 26 13.4 NNE 22 33 12 18 1012.3 - 0.0
22/01:30pm 36.5 33.9 13.9 26 13.9 NE 20 32 11 17 1012.7 - 0.0
22/01:00pm 36.1 32.5 13.0 25 14.0 NE 24 39 13 21 1013.1 - 0.0
22/12:30pm 37.2 32.1 4.2 13 17.7 ENE 20 32 11 17 1013.4 - 0.0
22/12:00pm 36.8 32.4 4.9 14 17.2 NNE 17 26 9 14 1013.9 1013.6 0.0
22/11:30am 35.7 30.6 4.1 14 16.8 ENE 20 28 11 15 1014.5 - 0.0
22/11:00am 35.3 32.0 8.2 19 15.3 ENE 15 26 8 14 1014.8 - 0.0
22/10:30am 34.7 32.6 11.2 24 13.8 E 13 20 7 11 1015.3 - 0.0
22/10:00am 32.4 32.5 15.4 36 10.6 ENE 9 13 5 7 1015.5 - 0.0
22/09:30am 31.4 32.4 17.7 44 8.8 ESE 9 15 5 8 1015.8 - 0.0
22/09:00am 28.8 30.5 18.0 52 6.9 ESE 6 11 3 6 1016.0 1015.8 0.0
22/08:30am 27.5 31.6 22.2 73 3.6 SSW 4 11 2 6 1015.8 - 0.0
22/08:00am 26.6 31.1 23.7 84 2.0 SSE 6 7 3 4 1015.6 - 0.0
22/07:30am 24.9 29.8 23.1 90 1.2 S 2 7 1 4 1015.5 - 0.0
22/07:00am 22.8 28.0 22.8 100 0.0 CALM 0 0 0 0 1015.2 - 0.0
22/06:30am 21.6 25.7 21.6 100 0.0 S 2 6 1 3 1014.9 - 0.0
22/06:00am 21.4 - 21.6 - - CALM 0 0 0 0 1014.6 1014.3 0.0
22/05:50am 21.4 - 21.6 - - W 2 6 1 3 1014.4 - 0.0
22/05:38am 21.3 - 21.5 - - W 4 7 2 4 1014.3 - 0.0
22/05:32am 21.4 - 21.6 - - W 6 9 3 5 1014.2 - 0.0
22/05:30am 21.3 - 21.5 - - W 6 9 3 5 1014.2 - 0.0
22/05:21am 21.3 - 21.5 - - W 6 7 3 4 1014.2 - 0.0
22/05:00am 21.5 25.2 21.5 100 0.0 W 4 7 2 4 1014.1 - 0.0
22/04:41am 21.7 25.1 21.7 100 0.0 W 6 7 3 4 1014.0 - 0.0
22/04:30am 21.8 25.3 21.8 100 0.0 W 6 7 3 4 1013.9 - 0.0
22/04:29am 21.8 25.3 21.8 100 0.0 WSW 6 7 3 4 1013.9 - 0.0
22/04:00am 22.2 26.7 22.2 100 0.0 SW 2 6 1 3 1013.8 - 0.0
22/03:30am 22.5 27.0 22.3 99 0.1 SW 2 6 1 3 1013.6 - 0.0
22/03:00am 23.2 28.4 22.9 98 0.2 CALM 0 0 0 0 1013.7 1013.4 0.0
22/02:30am 24.0 28.5 23.0 94 0.7 S 4 6 2 3 1013.8 - 0.0
22/02:00am 24.1 28.7 23.2 95 0.6 SSE 4 7 2 4 1014.0 - 0.0
22/01:30am 24.6 30.4 23.9 96 0.5 CALM 0 0 0 0 1014.3 - 0.0
22/01:00am 25.0 30.5 23.4 91 1.1 CALM 0 0 0 0 1014.5 - 0.0
22/12:30am 25.6 29.9 23.3 87 1.6 N 6 9 3 5 1015.0 - 0.0
22/12:00am 26.0 29.5 23.5 86 1.7 NE 11 17 6 9 1015.3 1015.0 0.0
 
Date/Time
CST
Temp
°C
App
Temp
°C
Dew
Point
Rel
Hum
%
Delta-T
°C
Wind Press
QNH
hPa
Press
MSL
hPa
Rain
since 9 am
mm
Dir
 
Spd
km/h
Gust
km/h
Spd
kts
Gust
kts
21/11:30pm 26.2 29.9 23.3 84 2.0 ENE 9 15 5 8 1015.7 - 0.0
21/11:00pm 26.5 29.2 23.4 83 2.1 NE 15 26 8 14 1015.7 - 0.0
21/10:30pm 26.7 29.4 23.4 82 2.3 ENE 15 20 8 11 1015.9 - 0.0
21/10:21pm 26.9 29.9 23.4 81 2.4 ENE 13 17 7 9 1015.9 - 0.0
21/10:03pm 27.1 29.3 23.3 80 2.6 NE 17 22 9 12 1015.7 - 0.0
21/10:00pm 27.1 29.6 23.1 79 2.7 NE 15 22 8 12 1015.7 - 0.0
21/09:30pm 27.5 29.4 22.0 72 3.7 NE 15 22 8 12 1015.4 - 0.0
21/09:00pm 27.9 28.7 20.7 65 4.8 NE 17 24 9 13 1015.1 1014.8 0.0
21/08:30pm 28.5 28.5 18.9 56 6.2 NE 17 24 9 13 1014.8 - 0.0
21/08:00pm 29.1 28.5 18.5 52 6.8 NE 19 30 10 16 1014.5 - 0.0
21/07:30pm 29.6 29.1 18.7 52 7.0 NE 19 30 10 16 1014.1 - 0.0
21/07:00pm 30.5 29.6 18.2 47 7.9 NE 20 35 11 19 1013.7 - 0.0
21/06:30pm 31.6 29.5 17.1 41 9.2 NE 24 35 13 19 1013.0 - 0.0
21/06:00pm 32.6 31.0 16.4 37 10.2 NNE 20 33 11 18 1012.7 1012.4 0.0
21/05:30pm 34.1 32.5 16.0 34 11.4 NE 19 33 10 18 1012.2 - 0.0
21/05:00pm 34.9 33.0 15.7 31 12.1 NE 20 33 11 18 1011.6 - 0.0
21/04:30pm 36.4 34.0 12.6 24 14.4 ENE 17 30 9 16 1011.3 - 0.0
21/04:00pm 37.3 34.5 5.3 14 17.4 NE 9 19 5 10 1011.2 - 0.0
21/03:30pm 37.3 33.2 4.3 13 17.7 ENE 15 24 8 13 1011.4 - 0.0
21/03:00pm 37.9 33.7 5.8 14 17.7 ESE 17 33 9 18 1011.7 1011.4 0.0
21/02:30pm 38.4 33.7 6.2 14 17.9 E 20 26 11 14 1012.1 - 0.0
21/02:00pm 36.3 32.6 6.5 16 16.5 SE 15 24 8 13 1012.6 - 0.0
21/01:30pm 36.7 33.9 6.8 16 16.6 NE 11 22 6 12 1013.0 - 0.0
21/01:00pm 36.5 33.8 7.5 17 16.3 NNE 11 24 6 13 1013.6 - 0.0
21/12:30pm 37.1 33.8 8.0 17 16.5 E 15 24 8 13 1014.2 - 0.0
21/12:00pm 35.8 31.7 8.6 19 15.5 NNE 20 26 11 14 1014.8 1014.5 0.0
21/11:30am 35.8 31.3 10.1 21 15.0 ENE 24 32 13 17 1015.3 - 0.0
21/11:00am 36.0 31.1 7.1 17 16.1 ENE 22 37 12 20 1015.5 - 0.0
21/10:30am 34.6 32.3 7.6 19 15.0 N 9 15 5 8 1015.7 - 0.0
21/10:00am 34.0 32.5 10.6 24 13.6 ESE 9 17 5 9 1016.0 - 0.0
21/09:30am 31.5 31.7 14.2 35 10.5 SW 6 13 3 7 1016.5 - 0.0
21/09:00am 30.3 30.3 15.2 40 9.3 SSW 9 15 5 8 1016.6 1016.4 0.0
21/08:30am 28.3 28.2 15.9 47 7.6 SSW 11 15 6 8 1016.7 - 0.0
21/08:00am 26.6 28.2 20.0 67 4.3 SSW 11 15 6 8 1016.4 - 0.0
21/07:30am 24.3 27.7 21.6 85 1.8 SSW 6 9 3 5 1016.4 - 0.0
21/07:00am 21.6 25.5 21.1 97 0.3 W 2 6 1 3 1016.0 - 0.0
21/06:30am 20.0 22.6 20.0 100 0.0 WNW 6 7 3 4 1015.7 - 0.0
21/06:00am 19.7 22.1 19.7 100 0.0 WSW 6 7 3 4 1015.4 1015.1 0.0
21/05:30am 20.1 22.7 20.1 100 0.0 W 6 7 3 4 1015.1 - 0.0
21/05:03am 20.5 23.1 20.5 100 0.0 SW 7 9 4 5 1014.8 - 0.0
21/05:00am 20.4 23.0 20.4 100 0.0 SW 7 9 4 5 1014.8 - 0.0
21/04:51am 20.6 23.3 20.6 100 0.0 SW 7 9 4 5 1014.7 - 0.0
21/04:30am 20.9 23.3 20.9 100 0.0 SW 9 9 5 5 1014.5 - 0.0
21/04:00am 21.1 24.2 21.1 100 0.0 SW 6 7 3 4 1014.3 - 0.0
21/03:30am 21.5 24.8 21.5 100 0.0 WSW 6 7 3 4 1014.3 - 0.0
21/03:00am 22.0 25.0 21.3 96 0.5 WSW 7 7 4 4 1014.2 1013.9 0.0
21/02:48am 22.3 25.6 21.5 95 0.5 WSW 6 7 3 4 1014.2 - 0.0
21/02:31am 22.9 26.8 21.9 94 0.7 WSW 4 6 2 3 1014.2 - 0.0
21/02:30am 23.0 26.9 21.8 93 0.8 WSW 4 6 2 3 1014.2 - 0.0
21/02:00am 23.4 26.4 21.3 88 1.4 SW 7 7 4 4 1014.3 - 0.0
21/01:56am 23.4 26.4 20.9 86 1.6 WSW 6 7 3 4 1014.3 - 0.0
21/01:37am 24.2 29.0 22.1 88 1.4 CALM 0 0 0 0 1014.4 - 0.0
21/01:30am 24.3 29.2 22.4 89 1.3 CALM 0 0 0 0 1014.5 - 0.0
21/01:00am 24.4 29.0 21.7 85 1.8 CALM 0 0 0 0 1014.7 - 0.0
21/12:30am 25.1 29.0 21.8 82 2.2 N 4 7 2 4 1014.9 - 0.0
21/12:00am 25.7 28.7 22.0 80 2.5 NE 9 11 5 6 1015.1 1014.8 0.0
 
Date/Time
CST
Temp
°C
App
Temp
°C
Dew
Point
Rel
Hum
%
Delta-T
°C
Wind Press
QNH
hPa
Press
MSL
hPa
Rain
since 9 am
mm
Dir
 
Spd
km/h
Gust
km/h
Spd
kts
Gust
kts
20/11:30pm 26.0 28.5 21.7 77 2.9 NE 11 17 6 9 1015.3 - 0.0
20/11:00pm 26.2 28.0 21.2 74 3.3 ENE 13 17 7 9 1015.6 - 0.0
20/10:30pm 26.5 28.1 20.8 71 3.8 NE 13 20 7 11 1015.5 - 0.0
20/10:00pm 26.9 27.1 19.3 63 4.9 NE 17 24 9 13 1015.4 - 0.0
20/09:30pm 27.2 26.6 18.5 59 5.6 NNE 19 24 10 13 1015.2 - 0.0
20/09:00pm 27.5 27.4 18.8 59 5.6 NE 17 26 9 14 1014.8 1014.5 0.0
20/08:30pm 28.0 27.9 19.5 60 5.5 NNE 19 26 10 14 1014.3 - 0.0
20/08:00pm 29.0 28.8 18.4 52 6.8 NE 17 28 9 15 1014.0 - 0.0

Other Formats:

Comma delimited format used in spreadsheet applications
http://www.bom.gov.au/fwo/IDD60801/IDD60801.94239.axf

JavaScript Object Notation format (JSON) in row-major order
http://www.bom.gov.au/fwo/IDD60801/IDD60801.94239.json